createdAt,value
2024-02-19T00:00:11.375Z,10.60
2024-02-19T00:02:45.082Z,10.73
2024-02-19T00:05:17.375Z,10.87
2024-02-19T00:07:48.293Z,10.27
2024-02-19T00:10:17.558Z,10.77
2024-02-19T00:12:45.875Z,11.17
2024-02-19T00:15:14.251Z,10.63
2024-02-19T00:17:45.474Z,10.87
2024-02-19T00:20:14.001Z,10.40
2024-02-19T00:22:44.362Z,11.13
2024-02-19T00:25:13.110Z,10.80
2024-02-19T00:27:41.342Z,11.10
2024-02-19T00:30:14.476Z,10.93
2024-02-19T00:32:44.284Z,10.67
2024-02-19T00:35:13.373Z,11.10
2024-02-19T00:37:42.420Z,11.97
2024-02-19T00:40:11.508Z,11.00
2024-02-19T00:42:41.540Z,10.20
2024-02-19T00:45:10.744Z,10.67
2024-02-19T00:47:39.429Z,10.63
2024-02-19T00:50:10.565Z,10.57
2024-02-19T00:52:39.995Z,10.53
2024-02-19T00:55:08.846Z,13.93
2024-02-19T00:57:41.829Z,16.93
2024-02-19T01:00:10.637Z,16.87
2024-02-19T01:02:39.003Z,19.37
2024-02-19T01:05:09.504Z,18.73
2024-02-19T01:07:38.049Z,20.07
2024-02-19T01:10:07.343Z,24.37
2024-02-19T01:12:37.509Z,19.23
2024-02-19T01:15:06.512Z,14.50
2024-02-19T01:17:36.452Z,11.47
2024-02-19T01:20:05.909Z,10.77
2024-02-19T01:22:35.828Z,10.37
2024-02-19T01:25:04.167Z,9.83
2024-02-19T01:27:32.330Z,10.30
2024-02-19T01:30:02.478Z,10.50
2024-02-19T01:32:30.676Z,9.57
2024-02-19T01:35:04.021Z,10.43
2024-02-19T01:37:32.310Z,9.47
2024-02-19T01:40:02.424Z,9.90
2024-02-19T01:42:31.457Z,9.30
2024-02-19T01:44:59.676Z,9.93
2024-02-19T01:47:32.093Z,9.77
2024-02-19T01:50:01.635Z,9.73
2024-02-19T01:52:31.723Z,9.63
2024-02-19T01:55:01.553Z,10.30
2024-02-19T01:57:30.134Z,9.10
2024-02-19T02:00:00.482Z,10.10
2024-02-19T02:02:28.756Z,9.33
2024-02-19T02:04:57.412Z,10.33
2024-02-19T02:07:25.674Z,9.40
2024-02-19T02:10:05.641Z,9.30
2024-02-19T02:12:34.408Z,9.77
2024-02-19T02:15:06.494Z,9.23
2024-02-19T02:17:36.469Z,9.20
2024-02-19T02:20:05.664Z,9.37
2024-02-19T02:22:34.470Z,8.87
2024-02-19T02:25:05.596Z,8.53
2024-02-19T02:27:35.501Z,9.77
2024-02-19T02:30:05.044Z,9.40
2024-02-19T02:32:34.989Z,9.07
2024-02-19T02:35:03.725Z,9.13
2024-02-19T02:37:33.534Z,8.93
2024-02-19T02:40:01.765Z,8.90
2024-02-19T02:42:32.073Z,9.60
2024-02-19T02:45:01.747Z,9.17
2024-02-19T02:47:30.109Z,9.63
2024-02-19T02:49:58.348Z,8.93
2024-02-19T02:52:27.822Z,9.70
2024-02-19T02:54:56.454Z,8.83
2024-02-19T02:57:29.203Z,8.23
2024-02-19T02:59:58.470Z,7.70
2024-02-19T03:02:28.103Z,7.57
2024-02-19T03:04:57.560Z,8.00
2024-02-19T03:07:29.062Z,8.40
2024-02-19T03:09:58.442Z,7.87
2024-02-19T03:12:26.772Z,8.00
2024-02-19T03:14:56.490Z,7.90
2024-02-19T03:17:24.820Z,7.57
2024-02-19T03:19:58.564Z,7.23
2024-02-19T03:22:27.278Z,7.70
2024-02-19T03:24:55.679Z,7.57
2024-02-19T03:27:24.102Z,7.57
2024-02-19T03:29:52.354Z,7.63
2024-02-19T03:32:25.132Z,7.57
2024-02-19T03:34:54.818Z,7.37
2024-02-19T03:37:24.523Z,7.97
2024-02-19T03:39:52.729Z,7.43
2024-02-19T03:42:22.056Z,7.47
2024-02-19T03:44:53.312Z,7.23
2024-02-19T03:47:22.539Z,7.47
2024-02-19T03:49:51.955Z,8.30
2024-02-19T03:52:27.432Z,7.70
2024-02-19T03:54:58.281Z,7.47
2024-02-19T03:57:28.927Z,7.70
2024-02-19T03:59:57.938Z,7.87
2024-02-19T04:02:28.513Z,6.90
2024-02-19T04:04:59.607Z,7.07
2024-02-19T04:07:33.009Z,7.47
2024-02-19T04:10:01.525Z,7.87
2024-02-19T04:12:29.732Z,7.97
2024-02-19T04:14:58.470Z,6.93
2024-02-19T04:17:28.576Z,7.03
2024-02-19T04:19:59.499Z,7.30
2024-02-19T04:22:27.746Z,7.50
2024-02-19T04:24:57.259Z,7.33
2024-02-19T04:27:29.399Z,7.30
2024-02-19T04:29:58.266Z,6.77
2024-02-19T04:32:27.386Z,7.10
2024-02-19T04:34:56.883Z,6.80
2024-02-19T04:37:25.177Z,6.70
2024-02-19T04:39:55.547Z,6.00
2024-02-19T04:42:25.041Z,6.43
2024-02-19T04:44:55.585Z,6.17
2024-02-19T04:47:24.609Z,6.27
2024-02-19T04:49:53.706Z,6.07
2024-02-19T04:52:22.460Z,5.90
2024-02-19T04:54:50.927Z,6.30
2024-02-19T04:57:19.173Z,5.93
2024-02-19T04:59:50.461Z,6.00
2024-02-19T05:02:18.691Z,6.50
2024-02-19T05:04:46.940Z,6.10
2024-02-19T05:07:18.784Z,6.90
2024-02-19T05:09:47.358Z,6.83
2024-02-19T05:12:15.668Z,6.07
2024-02-19T05:14:45.309Z,6.10
2024-02-19T05:17:18.411Z,5.93
2024-02-19T05:19:48.381Z,6.23
2024-02-19T05:22:20.437Z,5.77
2024-02-19T05:24:48.880Z,5.77
2024-02-19T05:27:17.485Z,5.80
2024-02-19T05:29:46.461Z,6.17
2024-02-19T05:32:19.100Z,6.27
2024-02-19T05:34:49.359Z,5.77
2024-02-19T05:37:18.027Z,6.43
2024-02-19T05:39:46.392Z,6.03
2024-02-19T05:42:16.524Z,6.33
2024-02-19T05:44:44.868Z,6.20
2024-02-19T05:47:16.458Z,6.03
2024-02-19T05:49:46.389Z,5.80
2024-02-19T05:52:14.801Z,5.50
2024-02-19T05:54:45.399Z,6.20
2024-02-19T05:57:15.640Z,5.90
2024-02-19T05:59:44.189Z,5.80
2024-02-19T06:02:12.704Z,5.63
2024-02-19T06:04:42.568Z,6.10
2024-02-19T06:07:11.547Z,6.00
2024-02-19T06:09:41.329Z,6.40
2024-02-19T06:12:11.524Z,5.90
2024-02-19T06:14:39.770Z,6.27
2024-02-19T06:17:08.030Z,5.80
2024-02-19T06:19:40.993Z,6.17
2024-02-19T06:22:15.292Z,6.13
2024-02-19T06:24:47.493Z,6.47
2024-02-19T06:27:15.760Z,6.23
2024-02-19T06:29:43.960Z,6.70
2024-02-19T06:32:13.487Z,6.60
2024-02-19T06:34:44.845Z,7.03
2024-02-19T06:37:16.548Z,6.47
2024-02-19T06:39:44.771Z,6.67
2024-02-19T06:42:14.521Z,6.77
2024-02-19T06:44:43.564Z,6.83
2024-02-19T06:47:12.979Z,6.13
2024-02-19T06:49:42.699Z,6.80
2024-02-19T06:52:11.085Z,6.40
2024-02-19T06:54:40.873Z,6.70
2024-02-19T06:57:09.224Z,6.83
2024-02-19T06:59:38.525Z,6.60
2024-02-19T07:02:08.466Z,6.37
2024-02-19T07:04:44.715Z,6.23
2024-02-19T07:07:13.407Z,6.20
2024-02-19T07:09:43.050Z,6.70
2024-02-19T07:12:11.702Z,6.67
2024-02-19T07:14:39.896Z,6.33
2024-02-19T07:17:08.436Z,6.13
2024-02-19T07:19:38.452Z,6.10
2024-02-19T07:22:07.005Z,6.87
2024-02-19T07:24:37.226Z,7.00
2024-02-19T07:27:08.216Z,6.03
2024-02-19T07:29:39.452Z,9.07
2024-02-19T07:32:08.293Z,7.43
2024-02-19T07:34:36.750Z,6.63
2024-02-19T07:37:05.577Z,6.20
2024-02-19T07:39:40.495Z,6.33
2024-02-19T07:42:10.804Z,6.47
2024-02-19T07:44:39.046Z,6.13
2024-02-19T07:47:10.481Z,6.20
2024-02-19T07:49:38.861Z,7.03
2024-02-19T07:52:07.571Z,6.43
2024-02-19T07:54:35.966Z,7.70
2024-02-19T07:57:04.347Z,8.27
2024-02-19T07:59:33.954Z,6.33
2024-02-19T08:02:02.497Z,6.37
2024-02-19T08:04:32.768Z,6.37
2024-02-19T08:07:03.509Z,6.77
2024-02-19T08:09:32.088Z,6.43
2024-02-19T08:12:00.539Z,6.27
2024-02-19T08:14:29.306Z,6.30
2024-02-19T08:17:02.765Z,6.37
2024-02-19T08:19:32.885Z,6.83
2024-02-19T08:22:01.697Z,6.37
2024-02-19T08:24:30.544Z,6.13
2024-02-19T08:26:58.698Z,5.93
2024-02-19T08:29:27.111Z,6.90
2024-02-19T08:31:55.416Z,6.97
2024-02-19T08:34:27.905Z,6.63
2024-02-19T08:36:56.648Z,7.10
2024-02-19T08:39:24.977Z,7.27
2024-02-19T08:41:53.238Z,6.67
2024-02-19T08:44:22.143Z,6.87
2024-02-19T08:46:50.361Z,6.80
2024-02-19T08:49:20.659Z,7.03
2024-02-19T08:51:50.372Z,7.53
2024-02-19T08:54:18.713Z,21.17
2024-02-19T08:56:49.609Z,7.47
2024-02-19T08:59:18.037Z,7.90
2024-02-19T09:01:46.396Z,7.40
2024-02-19T09:04:15.675Z,6.70
2024-02-19T09:06:44.717Z,7.53
2024-02-19T09:09:15.633Z,7.60
2024-02-19T09:11:44.010Z,7.73
2024-02-19T09:14:12.623Z,7.73
2024-02-19T09:16:44.646Z,8.40
2024-02-19T09:19:12.975Z,7.90
2024-02-19T09:21:45.688Z,20.37
2024-02-19T09:24:15.453Z,7.83
2024-02-19T09:26:44.786Z,8.17
2024-02-19T09:29:16.623Z,8.40
2024-02-19T09:31:48.853Z,7.87
2024-02-19T09:34:17.229Z,7.43
2024-02-19T09:36:47.286Z,7.97
2024-02-19T09:39:17.631Z,8.87
2024-02-19T09:41:46.615Z,7.80
2024-02-19T09:44:22.589Z,8.07
2024-02-19T09:47:04.225Z,7.83
2024-02-19T09:49:33.952Z,8.40
2024-02-19T09:52:04.034Z,8.67
2024-02-19T09:54:34.781Z,9.33
2024-02-19T09:57:05.957Z,9.67
2024-02-19T09:59:34.542Z,8.70
2024-02-19T10:02:07.236Z,8.30
2024-02-19T10:04:36.627Z,8.10
2024-02-19T10:07:05.744Z,7.80
2024-02-19T10:09:37.948Z,8.40
2024-02-19T10:12:06.830Z,7.83
2024-02-19T10:14:35.208Z,8.60
2024-02-19T10:17:03.568Z,8.77
2024-02-19T10:19:31.990Z,9.07
2024-02-19T10:22:00.426Z,9.00
2024-02-19T10:24:29.667Z,8.63
2024-02-19T10:27:00.559Z,17.40
2024-02-19T10:29:29.561Z,10.93
2024-02-19T10:31:57.918Z,9.07
2024-02-19T10:34:26.226Z,9.33
2024-02-19T10:37:03.611Z,9.57
2024-02-19T10:39:32.889Z,9.40
2024-02-19T10:42:03.170Z,9.63
2024-02-19T10:44:32.036Z,8.97
2024-02-19T10:47:01.016Z,10.10
2024-02-19T10:49:31.647Z,9.17
2024-02-19T10:52:00.403Z,9.37
2024-02-19T10:54:31.317Z,9.67
2024-02-19T10:57:09.276Z,9.47
2024-02-19T10:59:40.258Z,9.00
2024-02-19T11:02:11.030Z,9.40
2024-02-19T11:04:39.365Z,9.03
2024-02-19T11:07:10.096Z,9.97
2024-02-19T11:09:38.714Z,9.77
2024-02-19T11:12:15.804Z,9.33
2024-02-19T11:14:47.060Z,8.63
2024-02-19T11:17:15.604Z,9.10
2024-02-19T11:19:43.877Z,9.20
2024-02-19T11:22:22.779Z,9.90
2024-02-19T11:24:52.149Z,9.93
2024-02-19T11:27:26.091Z,9.60
2024-02-19T11:30:01.306Z,10.57
2024-02-19T11:32:30.518Z,10.90
2024-02-19T11:34:59.141Z,10.87
2024-02-19T11:37:27.625Z,10.00
2024-02-19T11:39:56.665Z,9.57
2024-02-19T11:42:27.708Z,9.90
2024-02-19T11:44:59.357Z,10.50
2024-02-19T11:47:28.118Z,9.87
2024-02-19T11:49:57.836Z,10.60
2024-02-19T11:52:26.822Z,10.30
2024-02-19T11:54:56.173Z,10.13
2024-02-19T11:57:28.820Z,10.30
2024-02-19T11:59:57.551Z,10.90
2024-02-19T12:02:25.978Z,11.10
2024-02-19T12:04:54.976Z,10.90
2024-02-19T12:07:23.798Z,11.07
2024-02-19T12:09:52.489Z,11.47
2024-02-19T12:12:22.720Z,11.80
2024-02-19T12:14:52.765Z,10.87
2024-02-19T12:17:21.439Z,12.00
2024-02-19T12:19:51.306Z,12.10
2024-02-19T12:22:26.831Z,11.90
2024-02-19T12:24:55.740Z,11.43
2024-02-19T12:27:24.584Z,11.23
2024-02-19T12:29:54.692Z,12.13
2024-02-19T12:32:26.626Z,11.30
2024-02-19T12:34:55.545Z,11.53
2024-02-19T12:37:25.896Z,12.70
2024-02-19T12:39:54.707Z,12.13
2024-02-19T12:42:23.518Z,12.60
2024-02-19T12:44:56.669Z,12.77
2024-02-19T12:47:25.577Z,12.20
2024-02-19T12:49:54.784Z,12.20
2024-02-19T12:52:25.583Z,12.83
2024-02-19T12:54:57.455Z,12.63
2024-02-19T12:57:27.883Z,13.10
2024-02-19T12:59:58.613Z,13.27
2024-02-19T13:02:31.893Z,12.80
2024-02-19T13:05:02.248Z,13.00
2024-02-19T13:07:32.575Z,12.40
2024-02-19T13:10:01.241Z,13.40
2024-02-19T13:12:29.621Z,13.67
2024-02-19T13:15:02.119Z,14.13
2024-02-19T13:17:39.693Z,13.90
2024-02-19T13:20:14.506Z,13.47
2024-02-19T13:22:43.318Z,14.90
2024-02-19T13:25:15.689Z,15.10
2024-02-19T13:27:47.212Z,14.67
2024-02-19T13:30:17.933Z,14.83
2024-02-19T13:32:48.180Z,14.47
2024-02-19T13:35:19.258Z,14.50
2024-02-19T13:37:48.777Z,14.13
2024-02-19T13:40:17.232Z,14.57
2024-02-19T13:42:45.785Z,14.47
2024-02-19T13:45:14.591Z,14.67
2024-02-19T13:47:45.530Z,14.40
2024-02-19T13:50:14.158Z,14.40
2024-02-19T13:52:42.731Z,14.33
2024-02-19T13:55:11.435Z,14.50
2024-02-19T13:57:39.697Z,14.57
2024-02-19T14:00:11.950Z,14.77
2024-02-19T14:02:42.170Z,14.37
2024-02-19T14:05:12.408Z,14.93
2024-02-19T14:07:41.941Z,14.90
2024-02-19T14:10:10.703Z,15.07
2024-02-19T14:12:39.231Z,16.17
2024-02-19T14:15:08.383Z,14.90
2024-02-19T14:17:36.814Z,18.13
2024-02-19T14:20:06.872Z,17.87
2024-02-19T14:22:37.024Z,17.67
2024-02-19T14:25:09.783Z,16.13
2024-02-19T14:27:39.694Z,16.20
2024-02-19T14:30:09.661Z,17.67
2024-02-19T14:32:38.017Z,16.90
2024-02-19T14:35:07.690Z,15.57
2024-02-19T14:37:40.039Z,17.60
2024-02-19T14:40:11.044Z,17.30
2024-02-19T14:42:39.488Z,17.03
2024-02-19T14:45:11.960Z,17.50
2024-02-19T14:47:43.432Z,17.60
2024-02-19T14:50:12.864Z,17.10
2024-02-19T14:52:43.723Z,18.93
2024-02-19T14:55:15.679Z,18.00
2024-02-19T14:57:46.120Z,18.00
2024-02-19T15:00:21.944Z,17.87
2024-02-19T15:02:52.728Z,18.00
2024-02-19T15:05:21.651Z,18.17
2024-02-19T15:07:55.750Z,19.10
2024-02-19T15:10:26.121Z,18.13
2024-02-19T15:12:56.347Z,18.47
2024-02-19T15:15:25.218Z,17.97
2024-02-19T15:17:54.458Z,18.73
2024-02-19T15:20:23.341Z,18.50
2024-02-19T15:22:53.240Z,19.07
2024-02-19T15:25:22.699Z,18.63
2024-02-19T15:27:50.991Z,19.27
2024-02-19T15:30:19.413Z,19.03
2024-02-19T15:32:51.173Z,18.17
2024-02-19T15:35:23.378Z,19.53
2024-02-19T15:37:53.947Z,19.40
2024-02-19T15:40:24.826Z,18.33
2024-02-19T15:42:53.997Z,18.43
2024-02-19T15:45:22.744Z,18.90
2024-02-19T15:47:51.249Z,18.13
2024-02-19T15:50:21.252Z,19.70
2024-02-19T15:52:58.880Z,19.47
2024-02-19T15:55:33.643Z,19.60
2024-02-19T15:58:07.130Z,18.53
2024-02-19T16:00:39.715Z,20.07
2024-02-19T16:03:09.024Z,20.47
2024-02-19T16:05:37.928Z,20.20
2024-02-19T16:08:39.684Z,20.67
2024-02-19T16:11:09.871Z,20.27
2024-02-19T16:13:40.818Z,19.43
2024-02-19T16:16:12.686Z,19.93
2024-02-19T16:18:46.920Z,20.30
2024-02-19T16:21:16.691Z,20.23
2024-02-19T16:26:42.041Z,20.97
2024-02-19T16:29:11.749Z,20.70
2024-02-19T16:31:40.134Z,20.90
2024-02-19T16:34:08.960Z,21.83
2024-02-19T16:36:40.745Z,22.10
2024-02-19T16:39:10.443Z,22.23
2024-02-19T16:41:42.049Z,22.83
2024-02-19T16:44:10.335Z,22.40
2024-02-19T16:46:38.659Z,22.60
2024-02-19T16:49:07.014Z,22.93
2024-02-19T16:51:37.001Z,23.23
2024-02-19T16:54:05.534Z,22.60
2024-02-19T16:56:35.300Z,21.63
2024-02-19T16:59:03.712Z,22.10
2024-02-19T17:01:32.924Z,22.83
2024-02-19T17:04:02.242Z,21.20
2024-02-19T17:06:30.667Z,22.03
2024-02-19T17:09:04.655Z,20.87
2024-02-19T17:11:35.907Z,21.37
2024-02-19T17:14:04.254Z,20.73
2024-02-19T17:16:34.872Z,20.37
2024-02-19T17:19:06.477Z,20.63
2024-02-19T17:21:35.054Z,20.43
2024-02-19T17:24:03.523Z,21.47
2024-02-19T17:26:32.171Z,19.43
2024-02-19T17:29:01.753Z,19.83
2024-02-19T17:31:30.360Z,18.93
2024-02-19T17:33:58.826Z,18.23
2024-02-19T17:36:28.627Z,15.17
2024-02-19T17:39:00.305Z,14.13
2024-02-19T17:41:29.712Z,11.53
2024-02-19T17:43:58.931Z,10.87
2024-02-19T17:46:29.656Z,7.90
2024-02-19T17:49:01.383Z,5.40
2024-02-19T17:51:30.234Z,4.87
2024-02-19T17:54:00.695Z,4.33
2024-02-19T17:56:30.755Z,3.90
2024-02-19T17:58:59.069Z,4.23
2024-02-19T18:01:30.565Z,3.87
2024-02-19T18:04:00.118Z,5.60
2024-02-19T18:06:28.382Z,4.47
2024-02-19T18:08:58.970Z,3.77
2024-02-19T18:11:28.800Z,3.53
2024-02-19T18:13:57.635Z,4.07
2024-02-19T18:16:29.966Z,4.20
2024-02-19T18:18:59.878Z,4.33
2024-02-19T18:21:28.773Z,3.93
2024-02-19T18:23:59.804Z,4.00
2024-02-19T18:26:28.973Z,4.03
2024-02-19T18:28:57.687Z,4.00
2024-02-19T18:31:28.877Z,4.07
2024-02-19T18:34:00.243Z,4.20
2024-02-19T18:36:29.721Z,7.47
2024-02-19T18:38:58.530Z,4.10
2024-02-19T18:41:29.799Z,3.90
2024-02-19T18:44:02.448Z,3.70
2024-02-19T18:46:33.990Z,3.90
2024-02-19T18:49:02.678Z,8.80
2024-02-19T18:51:31.742Z,5.77
2024-02-19T18:54:00.415Z,3.60
2024-02-19T18:56:29.695Z,3.70
2024-02-19T18:58:57.937Z,3.67
2024-02-19T19:01:26.227Z,2.97
2024-02-19T19:03:55.928Z,2.93
2024-02-19T19:06:24.868Z,2.90
2024-02-19T19:08:53.091Z,2.70
2024-02-19T19:11:25.716Z,3.37
2024-02-19T19:13:54.304Z,3.10
2024-02-19T19:16:22.636Z,2.67
2024-02-19T19:18:52.626Z,3.47
2024-02-19T19:21:22.330Z,3.03
2024-02-19T19:23:52.787Z,3.30
2024-02-19T19:26:21.052Z,4.00
2024-02-19T19:28:49.177Z,3.70
2024-02-19T19:31:17.429Z,3.40
2024-02-19T19:33:48.088Z,3.50
2024-02-19T19:36:16.679Z,3.90
2024-02-19T19:38:46.450Z,3.23
2024-02-19T19:41:14.638Z,3.53
2024-02-19T19:43:42.913Z,3.27
2024-02-19T19:46:17.010Z,2.97
2024-02-19T19:48:48.644Z,2.80
2024-02-19T19:51:16.977Z,2.83
2024-02-19T19:53:46.602Z,2.90
2024-02-19T19:56:15.804Z,2.73
2024-02-19T19:58:44.178Z,2.50
2024-02-19T20:01:13.018Z,3.07
2024-02-19T20:03:41.337Z,2.30
2024-02-19T20:06:09.536Z,2.33
2024-02-19T20:08:38.903Z,2.10
2024-02-19T20:11:11.520Z,1.77
2024-02-19T20:13:40.283Z,1.60
2024-02-19T20:16:09.782Z,1.83
2024-02-19T20:18:38.187Z,1.60
2024-02-19T20:21:07.014Z,1.73
2024-02-19T20:23:40.014Z,1.50
2024-02-19T20:26:10.580Z,2.10
2024-02-19T20:28:39.826Z,1.40
2024-02-19T20:31:08.899Z,1.80
2024-02-19T20:33:37.738Z,1.70
2024-02-19T20:36:07.227Z,1.70
2024-02-19T20:38:35.431Z,1.87
2024-02-19T20:41:05.765Z,1.60
2024-02-19T20:43:36.938Z,1.70
2024-02-19T20:46:05.480Z,1.80
2024-02-19T20:48:33.944Z,1.90
2024-02-19T20:51:02.859Z,2.00
2024-02-19T20:53:31.178Z,2.20
2024-02-19T20:55:59.700Z,2.00
2024-02-19T20:58:28.896Z,2.23
2024-02-19T21:00:58.979Z,2.37
2024-02-19T21:03:35.494Z,2.60
2024-02-19T21:06:09.602Z,2.13
2024-02-19T21:08:40.248Z,2.50
2024-02-19T21:11:09.944Z,2.13
2024-02-19T21:13:39.788Z,2.20
2024-02-19T21:16:11.103Z,2.47
2024-02-19T21:18:47.331Z,1.90
2024-02-19T21:21:26.229Z,1.90
2024-02-19T21:23:59.846Z,1.80
2024-02-19T21:26:29.406Z,1.70
2024-02-19T21:29:01.591Z,2.10
2024-02-19T21:31:31.419Z,2.00
2024-02-19T21:34:01.937Z,2.00
2024-02-19T21:36:32.809Z,2.03
2024-02-19T21:39:01.865Z,2.10
2024-02-19T21:41:30.178Z,2.20
2024-02-19T21:43:59.842Z,2.53
2024-02-19T21:46:28.591Z,2.20
2024-02-19T21:48:58.990Z,2.13
2024-02-19T21:51:27.404Z,2.30
2024-02-19T21:53:55.635Z,2.73
2024-02-19T21:56:24.812Z,2.50
2024-02-19T21:58:53.033Z,2.90
2024-02-19T22:01:23.122Z,2.50
2024-02-19T22:03:52.936Z,3.30
2024-02-19T22:06:25.688Z,3.00
2024-02-19T22:08:55.249Z,3.07
2024-02-19T22:11:25.492Z,3.00
2024-02-19T22:13:56.823Z,3.40
2024-02-19T22:16:25.191Z,3.73
2024-02-19T22:18:53.532Z,3.53
2024-02-19T22:21:25.832Z,3.90
2024-02-19T22:23:54.319Z,4.53
2024-02-19T22:26:22.799Z,4.00
2024-02-19T22:28:51.205Z,4.07
2024-02-19T22:31:22.975Z,4.20
2024-02-19T22:33:51.987Z,4.70
2024-02-19T22:36:20.236Z,4.30
2024-02-19T22:38:49.761Z,5.20
2024-02-19T22:41:20.004Z,4.73
2024-02-19T22:44:13.215Z,4.70
2024-02-19T22:46:41.461Z,5.10
2024-02-19T22:49:13.233Z,4.80
2024-02-19T22:51:41.674Z,4.80
2024-02-19T22:54:11.292Z,4.73
2024-02-19T22:56:39.709Z,5.20
2024-02-19T22:59:14.742Z,5.60
2024-02-19T23:01:52.045Z,4.77
2024-02-19T23:04:20.808Z,5.30
2024-02-19T23:06:50.293Z,5.20
2024-02-19T23:09:19.922Z,5.23
2024-02-19T23:11:51.509Z,4.80
2024-02-19T23:14:20.878Z,5.33
2024-02-19T23:16:49.354Z,4.60
2024-02-19T23:19:20.789Z,5.20
2024-02-19T23:21:49.589Z,4.97
2024-02-19T23:24:21.881Z,4.30
2024-02-19T23:26:50.121Z,4.73
2024-02-19T23:29:21.280Z,4.33
2024-02-19T23:31:49.835Z,3.80
2024-02-19T23:34:20.708Z,3.67
2024-02-19T23:36:49.843Z,3.33
2024-02-19T23:39:18.048Z,3.70
2024-02-19T23:41:48.649Z,3.63
2024-02-19T23:44:17.049Z,3.47
2024-02-19T23:46:45.750Z,3.30
2024-02-19T23:49:15.987Z,3.33
2024-02-19T23:51:49.929Z,3.73
2024-02-19T23:54:18.188Z,3.73
2024-02-19T23:56:48.059Z,3.70
2024-02-19T23:59:16.994Z,3.90
